Time;durP1;ratioP1;P1;durP2;ratioP2;P2;SDS_P1;SDS_P2;PMS_P1;PMS_P2;Temp;Humidity;BMP_temperature;BMP_pressure;BME280_temperature;BME280_humidity;BME280_pressure;Samples;Min_cycle;Max_cycle;Signal;HPM_P1;HPM_P2
2023/04/24 00:01:19;;;;;;;;;;;;;;;;;;5020860;28;4539;-61
2023/04/24 00:03:45;;;;;;;;;;;;;;;;;;5047418;28;4667;-62
2023/04/24 00:06:10;;;;;;;;;;;;;;;;;;5030135;28;1287;-61
2023/04/24 00:08:35;;;;;;;;;;;;;;;;;;5029952;28;6299;-62
2023/04/24 00:11:01;;;;;;;;;;;;;;;;;;5029833;28;4584;-61
2023/04/24 00:13:28;;;;;;;;;;;;;;;;;;5030225;28;4479;-63
2023/04/24 00:15:53;;;;;;;;;;;;;;;;;;5030080;28;4846;-62
2023/04/24 00:18:18;;;;;;;;;;;;;;;;;;5024337;28;1981;-61
2023/04/24 00:20:44;;;;;;;;;;;;;;;;;;5030101;28;4635;-61
2023/04/24 00:23:09;;;;;;;;;;;;;;;;;;5030143;28;4463;-61
2023/04/24 00:25:35;;;;;;;;;;;;;;;;;;5029726;28;4699;-64
2023/04/24 00:28:00;;;;;;;;;;;;;;;;;;5028698;28;4673;-61
2023/04/24 00:30:25;;;;;;;;;;;;;;;;;;5028766;28;1240;-60
2023/04/24 00:32:50;;;;;;;;;;;;;;;;;;5015695;28;4585;-60
2023/04/24 00:35:16;;;;;;;;;;;;;;;;;;5017389;28;4644;-61
2023/04/24 00:37:41;;;;;;;;;;;;;;;;;;5028724;28;4711;-62
2023/04/24 00:40:07;;;;;;;;;;;;;;;;;;5029617;28;4543;-61
2023/04/24 00:42:33;;;;;;;;;;;;;;;;;;5029567;28;4608;-60
2023/04/24 00:44:58;;;;;;;;;;;;;;;;;;5030111;28;1192;-64
2023/04/24 00:47:23;;;;;;;;;;;;;;;;;;5031716;28;4673;-62
2023/04/24 00:49:49;;;;;;;;;;;;;;;;;;5048004;28;4497;-63
2023/04/24 00:52:17;;;;;;;;;;;;;;;;;;5049038;28;4474;-63
2023/04/24 00:54:42;;;;;;;;;;;;;;;;;;5049326;28;4481;-67
2023/04/24 00:57:08;;;;;;;;;;;;;;;;;;5048975;28;1981;-63
2023/04/24 00:59:33;;;;;;;;;;;;;;;;;;5048378;28;4597;-65
2023/04/24 01:01:58;;;;;;;;;;;;;;;;;;5060115;28;4898;-63
2023/04/24 01:04:23;;;;;;;;;;;;;;;;;;5049229;28;4440;-63
2023/04/24 01:06:49;;;;;;;;;;;;;;;;;;5047362;28;4530;-65
2023/04/24 01:09:14;;;;;;;;;;;;;;;;;;5047759;28;6474;-62
2023/04/24 01:11:40;;;;;;;;;;;;;;;;;;5037973;28;4433;-64
2023/04/24 01:14:06;;;;;;;;;;;;;;;;;;5033946;28;4748;-64
2023/04/24 01:16:31;;;;;;;;;;;;;;;;;;5028727;28;4742;-64
2023/04/24 01:18:56;;;;;;;;;;;;;;;;;;5028462;28;4659;-63
2023/04/24 01:21:21;;;;;;;;;;;;;;;;;;5011183;28;1229;-63
2023/04/24 01:23:47;;;;;;;;;;;;;;;;;;5019859;28;4470;-63
2023/04/24 01:26:12;;;;;;;;;;;;;;;;;;5027895;28;4478;-62
2023/04/24 01:28:37;;;;;;;;;;;;;;;;;;5026407;28;4468;-62
2023/04/24 01:31:03;;;;;;;;;;;;;;;;;;5028498;28;5019;-66
2023/04/24 01:33:28;;;;;;;;;;;;;;;;;;5028625;28;4922;-63
2023/04/24 01:35:53;;;;;;;;;;;;;;;;;;5023660;28;1269;-64
2023/04/24 01:38:19;;;;;;;;;;;;;;;;;;5028594;28;4546;-63
2023/04/24 01:40:44;;;;;;;;;;;;;;;;;;5026688;28;4619;-63
2023/04/24 01:43:10;;;;;;;;;;;;;;;;;;5028821;28;5012;-64
2023/04/24 01:45:35;;;;;;;;;;;;;;;;;;5027051;28;5003;-63
2023/04/24 01:48:00;;;;;;;;;;;;;;;;;;5028729;28;1198;-65
2023/04/24 01:50:25;;;;;;;;;;;;;;;;;;5028273;28;4622;-64
2023/04/24 01:52:51;;;;;;;;;;;;;;;;;;5028270;28;4615;-63
2023/04/24 01:55:16;;;;;;;;;;;;;;;;;;5027525;28;4935;-62
2023/04/24 01:57:41;;;;;;;;;;;;;;;;;;5027544;28;4694;-62
2023/04/24 02:00:07;;;;;;;;;;;;;;;;;;5028714;28;1101;-63
2023/04/24 02:02:32;;;;;;;;;;;;;;;;;;5026227;28;4456;-61
2023/04/24 02:04:58;;;;;;;;;;;;;;;;;;5015068;28;4469;-62
2023/04/24 02:07:23;;;;;;;;;;;;;;;;;;5028091;28;4693;-63
2023/04/24 02:09:48;;;;;;;;;;;;;;;;;;5025015;28;4913;-62
2023/04/24 02:12:14;;;;;;;;;;;;;;;;;;5028693;28;1152;-62
2023/04/24 02:14:39;;;;;;;;;;;;;;;;;;5027943;28;4982;-61
2023/04/24 02:17:05;;;;;;;;;;;;;;;;;;5027956;28;4438;-63
2023/04/24 02:19:30;;;;;;;;;;;;;;;;;;5027728;28;4651;-62
2023/04/24 02:21:55;;;;;;;;;;;;;;;;;;5028240;28;5030;-63
2023/04/24 02:24:20;;;;;;;;;;;;;;;;;;5027854;28;1103;-61
2023/04/24 02:26:46;;;;;;;;;;;;;;;;;;5027239;28;5065;-62
2023/04/24 02:29:11;;;;;;;;;;;;;;;;;;5028085;28;4486;-61
2023/04/24 02:31:36;;;;;;;;;;;;;;;;;;5031595;28;4611;-61
2023/04/24 02:34:01;;;;;;;;;;;;;;;;;;5032244;28;5091;-62
2023/04/24 02:36:27;;;;;;;;;;;;;;;;;;5032100;28;4661;-62
2023/04/24 02:38:52;;;;;;;;;;;;;;;;;;5032563;28;1177;-62
2023/04/24 02:41:17;;;;;;;;;;;;;;;;;;5031938;28;4429;-63
2023/04/24 02:43:42;;;;;;;;;;;;;;;;;;5030481;28;4658;-64
2023/04/24 02:46:08;;;;;;;;;;;;;;;;;;5031871;28;4646;-63
2023/04/24 02:48:33;;;;;;;;;;;;;;;;;;5031320;28;4472;-62
2023/04/24 02:50:58;;;;;;;;;;;;;;;;;;5032004;28;1152;-62
2023/04/24 02:53:24;;;;;;;;;;;;;;;;;;5025469;28;5118;-62
2023/04/24 02:55:49;;;;;;;;;;;;;;;;;;5031433;28;5237;-63
2023/04/24 02:58:14;;;;;;;;;;;;;;;;;;5030815;28;4601;-62
2023/04/24 03:00:40;;;;;;;;;;;;;;;;;;5029898;28;4505;-63
2023/04/24 03:03:05;;;;;;;;;;;;;;;;;;5028246;28;1485;-62
2023/04/24 03:05:30;;;;;;;;;;;;;;;;;;5031274;28;4591;-62
2023/04/24 03:07:56;;;;;;;;;;;;;;;;;;5031603;28;4512;-62
2023/04/24 03:10:22;;;;;;;;;;;;;;;;;;5021183;28;6745;-61
2023/04/24 03:12:47;;;;;;;;;;;;;;;;;;5031157;28;5025;-62
2023/04/24 03:15:13;;;;;;;;;;;;;;;;;;5024352;28;1261;-61
2023/04/24 03:17:38;;;;;;;;;;;;;;;;;;5025442;28;4652;-61
2023/04/24 03:20:05;;;;;;;;;;;;;;;;;;5031035;28;5048;-63
2023/04/24 03:22:32;;;;;;;;;;;;;;;;;;5031137;28;4507;-61
2023/04/24 03:24:57;;;;;;;;;;;;;;;;;;5022546;28;4962;-61
2023/04/24 03:27:23;;;;;;;;;;;;;;;;;;5026290;28;1580;-62
2023/04/24 03:29:51;;;;;;;;;;;;;;;;;;5030603;28;4995;-62
2023/04/24 03:32:16;;;;;;;;;;;;;;;;;;5030950;28;4766;-62
2023/04/24 03:34:41;;;;;;;;;;;;;;;;;;5024299;28;4480;-61
2023/04/24 03:37:07;;;;;;;;;;;;;;;;;;5030657;28;4526;-61
2023/04/24 03:39:32;;;;;;;;;;;;;;;;;;5030737;28;4971;-61
2023/04/24 03:41:57;;;;;;;;;;;;;;;;;;5029161;28;1320;-62
2023/04/24 03:44:23;;;;;;;;;;;;;;;;;;5030798;28;4621;-61
2023/04/24 03:46:48;;;;;;;;;;;;;;;;;;5027631;28;4501;-62
2023/04/24 03:49:13;;;;;;;;;;;;;;;;;;5028381;28;4485;-63
2023/04/24 03:51:38;;;;;;;;;;;;;;;;;;5030551;28;4890;-63
2023/04/24 03:54:04;;;;;;;;;;;;;;;;;;5030888;28;1135;-61
2023/04/24 03:56:29;;;;;;;;;;;;;;;;;;5029573;28;4626;-62
2023/04/24 03:58:55;;;;;;;;;;;;;;;;;;5030660;28;4610;-64
2023/04/24 04:01:20;;;;;;;;;;;;;;;;;;5027152;28;4701;-62
2023/04/24 04:03:46;;;;;;;;;;;;;;;;;;5024232;28;4665;-64
2023/04/24 04:06:12;;;;;;;;;;;;;;;;;;5011023;28;1254;-62
2023/04/24 04:08:38;;;;;;;;;;;;;;;;;;5025993;28;6563;-62
2023/04/24 04:11:03;;;;;;;;;;;;;;;;;;5036531;28;4614;-64
2023/04/24 04:13:28;;;;;;;;;;;;;;;;;;5041427;28;4514;-63
2023/04/24 04:15:53;;;;;;;;;;;;;;;;;;5024760;28;4542;-62
2023/04/24 04:18:19;;;;;;;;;;;;;;;;;;5017459;28;1981;-62
2023/04/24 04:20:44;;;;;;;;;;;;;;;;;;5029654;28;4583;-62
2023/04/24 04:23:09;;;;;;;;;;;;;;;;;;5029883;28;4428;-62
2023/04/24 04:25:34;;;;;;;;;;;;;;;;;;5029881;28;5170;-62
2023/04/24 04:28:00;;;;;;;;;;;;;;;;;;5028937;28;5090;-62
2023/04/24 04:30:25;;;;;;;;;;;;;;;;;;5045713;28;1175;-63
2023/04/24 04:32:51;;;;;;;;;;;;;;;;;;5029406;28;4397;-62
2023/04/24 04:35:16;;;;;;;;;;;;;;;;;;5029195;28;4474;-62
2023/04/24 04:37:41;;;;;;;;;;;;;;;;;;5029358;28;5253;-63
2023/04/24 04:40:07;;;;;;;;;;;;;;;;;;5028844;28;4997;-62
2023/04/24 04:42:33;;;;;;;;;;;;;;;;;;5022914;28;4466;-62
2023/04/24 04:44:59;;;;;;;;;;;;;;;;;;5029916;28;1265;-62
2023/04/24 04:47:24;;;;;;;;;;;;;;;;;;5029688;28;4594;-62
2023/04/24 04:49:51;;;;;;;;;;;;;;;;;;5029184;28;4500;-61
2023/04/24 04:52:17;;;;;;;;;;;;;;;;;;5029073;28;4638;-63
2023/04/24 04:54:42;;;;;;;;;;;;;;;;;;5028852;28;5156;-62
2023/04/24 04:57:07;;;;;;;;;;;;;;;;;;5029134;28;1975;-61
2023/04/24 04:59:33;;;;;;;;;;;;;;;;;;5023960;28;5113;-61
2023/04/24 05:01:58;;;;;;;;;;;;;;;;;;5024850;28;4627;-67
2023/04/24 05:04:23;;;;;;;;;;;;;;;;;;5018506;28;4468;-62
2023/04/24 05:06:50;;;;;;;;;;;;;;;;;;5008466;28;4748;-63
2023/04/24 05:09:16;;;;;;;;;;;;;;;;;;5020663;28;6279;-63
2023/04/24 05:11:41;;;;;;;;;;;;;;;;;;5025632;28;4611;-64
2023/04/24 05:14:06;;;;;;;;;;;;;;;;;;5028874;28;4417;-64
2023/04/24 05:16:32;;;;;;;;;;;;;;;;;;5027169;28;5027;-63
2023/04/24 05:18:57;;;;;;;;;;;;;;;;;;5028809;28;4608;-63
2023/04/24 05:21:22;;;;;;;;;;;;;;;;;;5028989;28;1442;-63
2023/04/24 05:23:47;;;;;;;;;;;;;;;;;;5028672;28;4669;-64
2023/04/24 05:26:13;;;;;;;;;;;;;;;;;;5028266;28;5003;-62
2023/04/24 05:28:38;;;;;;;;;;;;;;;;;;5026987;28;4649;-62
2023/04/24 05:31:04;;;;;;;;;;;;;;;;;;5028387;28;5216;-63
2023/04/24 05:33:29;;;;;;;;;;;;;;;;;;5028597;28;4437;-66
2023/04/24 05:35:55;;;;;;;;;;;;;;;;;;5028902;28;1329;-62
2023/04/24 05:38:20;;;;;;;;;;;;;;;;;;5059880;28;5112;-65
2023/04/24 05:40:46;;;;;;;;;;;;;;;;;;5013556;28;4521;-63
2023/04/24 05:43:11;;;;;;;;;;;;;;;;;;5026227;28;4933;-64
2023/04/24 05:45:37;;;;;;;;;;;;;;;;;;5026564;28;4496;-65
2023/04/24 05:48:03;;;;;;;;;;;;;;;;;;5027114;28;1245;-64
2023/04/24 05:50:28;;;;;;;;;;;;;;;;;;5058519;28;4520;-62
2023/04/24 05:52:53;;;;;;;;;;;;;;;;;;5025705;28;4622;-64
2023/04/24 05:55:19;;;;;;;;;;;;;;;;;;5014604;28;4476;-62
2023/04/24 05:57:44;;;;;;;;;;;;;;;;;;5026770;28;5087;-62
2023/04/24 06:00:11;;;;;;;;;;;;;;;;;;5026531;28;1186;-63
2023/04/24 06:02:37;;;;;;;;;;;;;;;;;;5017338;28;5104;-62
2023/04/24 06:05:02;;;;;;;;;;;;;;;;;;5022060;28;4597;-63
2023/04/24 06:07:27;;;;;;;;;;;;;;;;;;5015917;28;5130;-64
2023/04/24 06:09:53;;;;;;;;;;;;;;;;;;5023011;28;6303;-63
2023/04/24 06:12:18;;;;;;;;;;;;;;;;;;5024621;28;1168;-62
2023/04/24 06:14:43;;;;;;;;;;;;;;;;;;5027087;28;4958;-63
2023/04/24 06:17:09;;;;;;;;;;;;;;;;;;5019160;28;4642;-64
2023/04/24 06:19:34;;;;;;;;;;;;;;;;;;5025661;28;5222;-63
2023/04/24 06:21:59;;;;;;;;;;;;;;;;;;5014854;28;4652;-62
2023/04/24 06:24:28;;;;;;;;;;;;;;;;;;5027786;28;3243;-61
2023/04/24 06:26:54;;;;;;;;;;;;;;;;;;5027219;28;5035;-65
2023/04/24 06:29:19;;;;;;;;;;;;;;;;;;5027135;28;4599;-62
2023/04/24 06:31:44;;;;;;;;;;;;;;;;;;5014297;28;4545;-61
2023/04/24 06:34:10;;;;;;;;;;;;;;;;;;5026454;28;4630;-63
2023/04/24 06:36:35;;;;;;;;;;;;;;;;;;5025236;28;5180;-61
2023/04/24 06:39:00;;;;;;;;;;;;;;;;;;5028473;28;1191;-67
2023/04/24 06:41:26;;;;;;;;;;;;;;;;;;5026708;28;5212;-61
2023/04/24 06:43:51;;;;;;;;;;;;;;;;;;5017413;28;4697;-63
2023/04/24 06:46:16;;;;;;;;;;;;;;;;;;5027119;28;4676;-62
2023/04/24 06:48:42;;;;;;;;;;;;;;;;;;5017307;28;4897;-62
2023/04/24 06:51:07;;;;;;;;;;;;;;;;;;5027580;28;2123;-61
2023/04/24 06:53:33;;;;;;;;;;;;;;;;;;5027284;28;4539;-61
2023/04/24 06:55:58;;;;;;;;;;;;;;;;;;5027749;28;4899;-62
2023/04/24 06:58:24;;;;;;;;;;;;;;;;;;5026860;28;4512;-62
2023/04/24 07:00:49;;;;;;;;;;;;;;;;;;5022948;28;4643;-63
2023/04/24 07:03:15;;;;;;;;;;;;;;;;;;5024912;28;1194;-63
2023/04/24 07:05:41;;;;;;;;;;;;;;;;;;5020722;28;4602;-62
2023/04/24 07:08:06;;;;;;;;;;;;;;;;;;5022709;28;5528;-60
2023/04/24 07:10:33;;;;;;;;;;;;;;;;;;5026922;28;6835;-63
2023/04/24 07:12:59;;;;;;;;;;;;;;;;;;5022264;28;4565;-62
2023/04/24 07:15:24;;;;;;;;;;;;;;;;;;5019137;28;1116;-64
2023/04/24 07:17:49;;;;;;;;;;;;;;;;;;5028160;28;4435;-63
2023/04/24 07:20:15;;;;;;;;;;;;;;;;;;5026174;28;4467;-61
2023/04/24 07:22:40;;;;;;;;;;;;;;;;;;5028157;28;4974;-57
2023/04/24 07:25:06;;;;;;;;;;;;;;;;;;5027974;28;4553;-59
2023/04/24 07:27:32;;;;;;;;;;;;;;;;;;5024260;28;4593;-58
2023/04/24 07:29:57;;;;;;;;;;;;;;;;;;5023870;28;3905;-61
2023/04/24 07:32:22;;;;;;;;;;;;;;;;;;5017339;28;4532;-58
2023/04/24 07:34:47;;;;;;;;;;;;;;;;;;5023677;28;4478;-57
2023/04/24 07:37:13;;;;;;;;;;;;;;;;;;5028654;28;5200;-57
2023/04/24 07:39:38;;;;;;;;;;;;;;;;;;5030922;28;4506;-58
2023/04/24 07:42:04;;;;;;;;;;;;;;;;;;5028043;28;3283;-60
2023/04/24 07:44:29;;;;;;;;;;;;;;;;;;5025008;28;5233;-58
2023/04/24 07:46:54;;;;;;;;;;;;;;;;;;5029469;28;4673;-59
2023/04/24 07:49:20;;;;;;;;;;;;;;;;;;5057090;28;4626;-59
2023/04/24 07:51:45;;;;;;;;;;;;;;;;;;5026221;28;4971;-60
2023/04/24 07:54:10;;;;;;;;;;;;;;;;;;5018241;28;3701;-60
2023/04/24 07:56:38;;;;;;;;;;;;;;;;;;5016135;28;4668;-59
2023/04/24 07:59:04;;;;;;;;;;;;;;;;;;5020975;28;4921;-62
2023/04/24 08:01:29;;;;;;;;;;;;;;;;;;5019870;28;4503;-62
2023/04/24 08:03:54;;;;;;;;;;;;;;;;;;5013302;28;4534;-61
2023/04/24 08:06:19;;;;;;;;;;;;;;;;;;5018333;28;3473;-63
2023/04/24 08:08:45;;;;;;;;;;;;;;;;;;5019859;28;6465;-60
2023/04/24 08:11:10;;;;;;;;;;;;;;;;;;5019287;28;4667;-59
2023/04/24 08:13:35;;;;;;;;;;;;;;;;;;5046385;28;5968;-60
2023/04/24 08:16:01;;;;;;;;;;;;;;;;;;5025301;28;4507;-59
2023/04/24 08:18:26;;;;;;;;;;;;;;;;;;5019596;28;3456;-61
2023/04/24 08:20:51;;;;;;;;;;;;;;;;;;5007984;28;4752;-64
2023/04/24 08:23:16;;;;;;;;;;;;;;;;;;5017184;28;5042;-58
2023/04/24 08:25:42;;;;;;;;;;;;;;;;;;5025613;28;4707;-62
2023/04/24 08:28:08;;;;;;;;;;;;;;;;;;5028367;28;4582;-59
2023/04/24 08:30:33;;;;;;;;;;;;;;;;;;5022199;28;5192;-64
2023/04/24 08:32:58;;;;;;;;;;;;;;;;;;5013158;28;3421;-61
2023/04/24 08:35:24;;;;;;;;;;;;;;;;;;5024368;28;4995;-57
2023/04/24 08:37:49;;;;;;;;;;;;;;;;;;5012170;28;4832;-57
2023/04/24 08:40:15;;;;;;;;;;;;;;;;;;5028687;28;4465;-58
2023/04/24 08:42:44;;;;;;;;;;;;;;;;;;5017176;28;4476;-60
2023/04/24 08:45:09;;;;;;;;;;;;;;;;;;5023496;28;1063;-61
2023/04/24 08:47:35;;;;;;;;;;;;;;;;;;5025523;28;4490;-61
2023/04/24 08:50:02;;;;;;;;;;;;;;;;;;5016553;28;4471;-59
2023/04/24 08:52:28;;;;;;;;;;;;;;;;;;5051111;28;4649;-60
2023/04/24 08:54:53;;;;;;;;;;;;;;;;;;5021834;28;4770;-60
2023/04/24 08:57:18;;;;;;;;;;;;;;;;;;5016626;28;1906;-63
2023/04/24 08:59:44;;;;;;;;;;;;;;;;;;5021995;28;4959;-60
2023/04/24 09:02:09;;;;;;;;;;;;;;;;;;5021714;28;4614;-59
2023/04/24 09:04:35;;;;;;;;;;;;;;;;;;5016259;28;4497;-63
2023/04/24 09:07:00;;;;;;;;;;;;;;;;;;5028922;28;4510;-60
2023/04/24 09:09:25;;;;;;;;;;;;;;;;;;5014652;28;6280;-59
2023/04/24 09:11:51;;;;;;;;;;;;;;;;;;5041543;28;4636;-58
2023/04/24 09:14:16;;;;;;;;;;;;;;;;;;5029537;28;4425;-61
2023/04/24 09:16:42;;;;;;;;;;;;;;;;;;5028604;28;5785;-59
2023/04/24 09:19:07;;;;;;;;;;;;;;;;;;5024094;28;5141;-62
2023/04/24 09:21:33;;;;;;;;;;;;;;;;;;5019581;28;5031;-65
2023/04/24 09:24:03;;;;;;;;;;;;;;;;;;5020065;28;3598;-60
2023/04/24 09:26:32;;;;;;;;;;;;;;;;;;5019479;28;4752;-60
2023/04/24 09:28:57;;;;;;;;;;;;;;;;;;5026435;28;4982;-61
2023/04/24 09:31:23;;;;;;;;;;;;;;;;;;5019108;28;4710;-61
2023/04/24 09:33:55;;;;;;;;;;;;;;;;;;5019978;28;4462;-60
2023/04/24 09:36:26;;;;;;;;;;;;;;;;;;5058871;28;3293;-59
2023/04/24 09:38:52;;;;;;;;;;;;;;;;;;5022163;28;4532;-59
2023/04/24 09:41:18;;;;;;;;;;;;;;;;;;5027534;28;4488;-62
2023/04/24 09:43:43;;;;;;;;;;;;;;;;;;5025230;28;5251;-62
2023/04/24 09:46:09;;;;;;;;;;;;;;;;;;5024889;28;5161;-61
2023/04/24 09:48:35;;;;;;;;;;;;;;;;;;5037543;28;4556;-62
2023/04/24 09:51:02;;;;;;;;;;;;;;;;;;5029214;28;1257;-59
2023/04/24 09:53:28;;;;;;;;;;;;;;;;;;5027568;28;4456;-61
2023/04/24 09:55:53;;;;;;;;;;;;;;;;;;5032088;28;4472;-63
2023/04/24 09:58:24;;;;;;;;;;;;;;;;;;5021589;28;4666;-62
2023/04/24 10:00:50;;;;;;;;;;;;;;;;;;5021785;28;4527;-65
2023/04/24 10:03:15;;;;;;;;;;;;;;;;;;5026593;28;1105;-60
2023/04/24 10:05:40;;;;;;;;;;;;;;;;;;5025866;28;5018;-60
2023/04/24 10:08:06;;;;;;;;;;;;;;;;;;5022036;28;4694;-65
2023/04/24 10:10:33;;;;;;;;;;;;;;;;;;5012963;28;6804;-59
2023/04/24 10:12:59;;;;;;;;;;;;;;;;;;5028512;28;5079;-62
2023/04/24 10:15:25;;;;;;;;;;;;;;;;;;5022534;28;3325;-61
2023/04/24 10:17:53;;;;;;;;;;;;;;;;;;5016722;28;4547;-60
2023/04/24 10:20:22;;;;;;;;;;;;;;;;;;5036509;28;5031;-60
2023/04/24 10:22:49;;;;;;;;;;;;;;;;;;5026242;28;4820;-61
2023/04/24 10:25:16;;;;;;;;;;;;;;;;;;5014110;28;5016;-63
2023/04/24 10:27:41;;;;;;;;;;;;;;;;;;5022317;28;4685;-62
2023/04/24 10:30:06;;;;;;;;;;;;;;;;;;5020122;28;3318;-64
2023/04/24 10:32:32;;;;;;;;;;;;;;;;;;5017513;28;4377;-62
2023/04/24 10:34:57;;;;;;;;;;;;;;;;;;5050539;28;5195;-60
2023/04/24 10:37:23;;;;;;;;;;;;;;;;;;5013909;28;4609;-58
2023/04/24 10:39:48;;;;;;;;;;;;;;;;;;5045137;28;4537;-58
2023/04/24 10:42:15;;;;;;;;;;;;;;;;;;5027482;28;2295;-60
2023/04/24 10:44:40;;;;;;;;;;;;;;;;;;5022232;28;4595;-57
2023/04/24 10:47:05;;;;;;;;;;;;;;;;;;5020340;28;4459;-59
2023/04/24 10:49:31;;;;;;;;;;;;;;;;;;5053634;28;4734;-60
2023/04/24 10:51:59;;;;;;;;;;;;;;;;;;5031261;28;4957;-58
2023/04/24 10:54:28;;;;;;;;;;;;;;;;;;5023859;28;3376;-61
2023/04/24 10:57:12;;;;;;;;;;;;;;;;;;5048469;28;5986;-61
2023/04/24 10:59:38;;;;;;;;;;;;;;;;;;5041761;28;4766;-61
2023/04/24 11:02:03;;;;;;;;;;;;;;;;;;5048394;28;4789;-60
2023/04/24 11:04:29;;;;;;;;;;;;;;;;;;5049803;28;4999;-58
2023/04/24 11:06:55;;;;;;;;;;;;;;;;;;5045559;28;5413;-57
2023/04/24 11:09:20;;;;;;;;;;;;;;;;;;5046011;28;6381;-60
2023/04/24 11:11:46;;;;;;;;;;;;;;;;;;5036320;28;4703;-59
2023/04/24 11:14:13;;;;;;;;;;;;;;;;;;5047760;28;4437;-59
2023/04/24 11:16:42;;;;;;;;;;;;;;;;;;5038654;28;4544;-59
2023/04/24 11:19:16;;;;;;;;;;;;;;;;;;5045566;28;4638;-58
2023/04/24 11:22:17;;;;;;;;;;;;;;;;;;5046748;28;4787;-59
2023/04/24 11:24:42;;;;;;;;;;;;;;;;;;5003446;28;5073;-60
2023/04/24 11:27:13;;;;;;;;;;;;;;;;;;5035154;28;3373;-57
2023/04/24 11:29:57;;;;;;;;;;;;;;;;;;5038125;28;4637;-55
2023/04/24 11:32:38;;;;;;;;;;;;;;;;;;5050395;28;4999;-56
2023/04/24 11:35:19;;;;;;;;;;;;;;;;;;5048255;28;4486;-56
2023/04/24 11:37:54;;;;;;;;;;;;;;;;;;5045005;28;5014;-56
2023/04/24 11:40:23;;;;;;;;;;;;;;;;;;5037075;28;5160;-56
2023/04/24 11:42:49;;;;;;;;;;;;;;;;;;5043315;28;4458;-56
2023/04/24 11:45:16;;;;;;;;;;;;;;;;;;5050702;28;1089;-56
2023/04/24 11:47:42;;;;;;;;;;;;;;;;;;5044136;28;4618;-56
2023/04/24 11:50:08;;;;;;;;;;;;;;;;;;5040853;28;4929;-56
2023/04/24 11:52:33;;;;;;;;;;;;;;;;;;5040443;28;4511;-56
2023/04/24 11:54:59;;;;;;;;;;;;;;;;;;5041764;28;5039;-54
2023/04/24 11:57:26;;;;;;;;;;;;;;;;;;5046600;28;1902;-54
2023/04/24 11:59:51;;;;;;;;;;;;;;;;;;5049678;28;4439;-54
2023/04/24 12:02:26;;;;;;;;;;;;;;;;;;5045130;28;4608;-56
2023/04/24 12:04:52;;;;;;;;;;;;;;;;;;5035173;28;4713;-53
2023/04/24 12:07:17;;;;;;;;;;;;;;;;;;5037267;28;4510;-54
2023/04/24 12:09:46;;;;;;;;;;;;;;;;;;5048113;28;6355;-53
2023/04/24 12:12:12;;;;;;;;;;;;;;;;;;5044479;28;3424;-53
2023/04/24 12:14:45;;;;;;;;;;;;;;;;;;5045728;28;4588;-53
2023/04/24 12:17:10;;;;;;;;;;;;;;;;;;5049952;28;4764;-56
2023/04/24 12:19:35;;;;;;;;;;;;;;;;;;5045931;28;5215;-55
2023/04/24 12:22:01;;;;;;;;;;;;;;;;;;5040430;28;4989;-54
2023/04/24 12:24:27;;;;;;;;;;;;;;;;;;5047910;28;4472;-55
2023/04/24 12:26:53;;;;;;;;;;;;;;;;;;5037004;28;3407;-55
2023/04/24 12:29:21;;;;;;;;;;;;;;;;;;5047523;28;4897;-54
2023/04/24 12:31:46;;;;;;;;;;;;;;;;;;5042010;28;4498;-53
2023/04/24 12:34:20;;;;;;;;;;;;;;;;;;5048849;28;4641;-55
2023/04/24 12:36:45;;;;;;;;;;;;;;;;;;5058336;28;4650;-57
2023/04/24 12:39:17;;;;;;;;;;;;;;;;;;5038443;28;3463;-57
2023/04/24 12:41:56;;;;;;;;;;;;;;;;;;5034854;28;4571;-59
2023/04/24 12:44:28;;;;;;;;;;;;;;;;;;5044650;28;5078;-58
2023/04/24 12:46:54;;;;;;;;;;;;;;;;;;5038105;28;5861;-58
2023/04/24 12:49:19;;;;;;;;;;;;;;;;;;5039431;28;5180;-58
2023/04/24 12:51:45;;;;;;;;;;;;;;;;;;5047117;28;5033;-58
2023/04/24 12:54:11;;;;;;;;;;;;;;;;;;5049116;28;1269;-58
2023/04/24 12:56:39;;;;;;;;;;;;;;;;;;5048170;28;4958;-58
2023/04/24 12:59:04;;;;;;;;;;;;;;;;;;5034144;28;5156;-58
2023/04/24 13:01:30;;;;;;;;;;;;;;;;;;5043221;28;5005;-59
2023/04/24 13:03:55;;;;;;;;;;;;;;;;;;5048043;28;4921;-59
2023/04/24 13:06:21;;;;;;;;;;;;;;;;;;5047361;28;1233;-58
2023/04/24 13:08:47;;;;;;;;;;;;;;;;;;5028159;28;6429;-58
2023/04/24 13:11:12;;;;;;;;;;;;;;;;;;5028257;28;4475;-57
2023/04/24 13:13:38;;;;;;;;;;;;;;;;;;5027199;28;4943;-59
2023/04/24 13:16:03;;;;;;;;;;;;;;;;;;5027284;28;4707;-59
2023/04/24 13:18:28;;;;;;;;;;;;;;;;;;5028096;28;5182;-58
2023/04/24 13:20:54;;;;;;;;;;;;;;;;;;5027763;28;1496;-59
2023/04/24 13:23:20;;;;;;;;;;;;;;;;;;5020814;28;4996;-58
2023/04/24 13:25:45;;;;;;;;;;;;;;;;;;5024880;28;4479;-58
2023/04/24 13:28:10;;;;;;;;;;;;;;;;;;5028240;28;4673;-58
2023/04/24 13:30:36;;;;;;;;;;;;;;;;;;5028184;28;5051;-58
2023/04/24 13:33:02;;;;;;;;;;;;;;;;;;5028979;28;1113;-59
2023/04/24 13:35:27;;;;;;;;;;;;;;;;;;5027812;28;4511;-59
2023/04/24 13:37:53;;;;;;;;;;;;;;;;;;5028019;28;5027;-59
2023/04/24 13:40:18;;;;;;;;;;;;;;;;;;5028413;28;4552;-59
2023/04/24 13:42:43;;;;;;;;;;;;;;;;;;5028488;28;4640;-58
2023/04/24 13:45:09;;;;;;;;;;;;;;;;;;5028818;28;1112;-58
2023/04/24 13:47:35;;;;;;;;;;;;;;;;;;5043236;28;4504;-58
2023/04/24 13:50:01;;;;;;;;;;;;;;;;;;5027800;28;5018;-58
2023/04/24 13:52:26;;;;;;;;;;;;;;;;;;5027969;28;4646;-58
2023/04/24 13:54:51;;;;;;;;;;;;;;;;;;5026891;28;4495;-58
2023/04/24 13:57:17;;;;;;;;;;;;;;;;;;5028299;28;1989;-59
2023/04/24 13:59:42;;;;;;;;;;;;;;;;;;5028483;28;4662;-60
2023/04/24 14:02:07;;;;;;;;;;;;;;;;;;5054128;28;5656;-58
2023/04/24 14:04:32;;;;;;;;;;;;;;;;;;5035677;28;5075;-58
2023/04/24 14:06:58;;;;;;;;;;;;;;;;;;5042493;28;5059;-58
2023/04/24 14:09:23;;;;;;;;;;;;;;;;;;5026970;28;6327;-58
2023/04/24 14:11:48;;;;;;;;;;;;;;;;;;5017662;28;5031;-58
2023/04/24 14:14:14;;;;;;;;;;;;;;;;;;5019793;28;4603;-58
2023/04/24 14:16:39;;;;;;;;;;;;;;;;;;5021689;28;5067;-59
2023/04/24 14:19:05;;;;;;;;;;;;;;;;;;5019508;28;4513;-59
2023/04/24 14:21:30;;;;;;;;;;;;;;;;;;5020965;28;5055;-58
2023/04/24 14:23:56;;;;;;;;;;;;;;;;;;5028292;28;1189;-58
2023/04/24 14:26:21;;;;;;;;;;;;;;;;;;5029083;28;4442;-59
2023/04/24 14:28:46;;;;;;;;;;;;;;;;;;5031091;28;4587;-58
2023/04/24 14:31:12;;;;;;;;;;;;;;;;;;5031889;28;4520;-59
2023/04/24 14:33:37;;;;;;;;;;;;;;;;;;5030301;28;4646;-58
2023/04/24 14:36:04;;;;;;;;;;;;;;;;;;5032355;28;1187;-58
2023/04/24 14:38:31;;;;;;;;;;;;;;;;;;5063115;28;4827;-60
2023/04/24 14:40:56;;;;;;;;;;;;;;;;;;5031839;28;4544;-58
2023/04/24 14:43:21;;;;;;;;;;;;;;;;;;5031451;28;4498;-58
2023/04/24 14:45:47;;;;;;;;;;;;;;;;;;5031401;28;4610;-58
2023/04/24 14:48:12;;;;;;;;;;;;;;;;;;5031843;28;1172;-59
2023/04/24 14:50:37;;;;;;;;;;;;;;;;;;5031207;28;4443;-58
2023/04/24 14:53:02;;;;;;;;;;;;;;;;;;5063157;28;4640;-58
2023/04/24 14:55:28;;;;;;;;;;;;;;;;;;5031445;28;4690;-58
2023/04/24 14:57:54;;;;;;;;;;;;;;;;;;5030393;28;4748;-58
2023/04/24 15:00:20;;;;;;;;;;;;;;;;;;5024828;28;1294;-58
2023/04/24 15:02:45;;;;;;;;;;;;;;;;;;5042520;28;4737;-58
2023/04/24 15:05:10;;;;;;;;;;;;;;;;;;5036776;28;5033;-59
2023/04/24 15:07:36;;;;;;;;;;;;;;;;;;5031002;28;4486;-59
2023/04/24 15:10:01;;;;;;;;;;;;;;;;;;5030479;28;6519;-59
2023/04/24 15:12:28;;;;;;;;;;;;;;;;;;5031525;28;1165;-59
2023/04/24 15:14:53;;;;;;;;;;;;;;;;;;5051404;28;5028;-59
2023/04/24 15:17:18;;;;;;;;;;;;;;;;;;5048767;28;5310;-59
2023/04/24 15:19:44;;;;;;;;;;;;;;;;;;5050835;28;4981;-59
2023/04/24 15:22:09;;;;;;;;;;;;;;;;;;5043283;28;5511;-59
2023/04/24 15:24:35;;;;;;;;;;;;;;;;;;5045384;28;4547;-58
2023/04/24 15:27:01;;;;;;;;;;;;;;;;;;5048076;28;1397;-58
2023/04/24 15:29:27;;;;;;;;;;;;;;;;;;5046123;28;4647;-59
2023/04/24 15:31:52;;;;;;;;;;;;;;;;;;5036277;28;4875;-59
2023/04/24 15:34:17;;;;;;;;;;;;;;;;;;5038507;28;5019;-59
2023/04/24 15:36:42;;;;;;;;;;;;;;;;;;5048049;28;4493;-63
2023/04/24 15:39:08;;;;;;;;;;;;;;;;;;5044874;28;3397;-57
2023/04/24 15:41:33;;;;;;;;;;;;;;;;;;5047145;28;4416;-57
2023/04/24 15:43:58;;;;;;;;;;;;;;;;;;5044702;28;4671;-58
2023/04/24 15:46:24;;;;;;;;;;;;;;;;;;5048964;28;5135;-59
2023/04/24 15:48:49;;;;;;;;;;;;;;;;;;5048211;28;4760;-59
2023/04/24 15:51:15;;;;;;;;;;;;;;;;;;5038509;28;3204;-60
2023/04/24 15:53:40;;;;;;;;;;;;;;;;;;5039646;28;5056;-59
2023/04/24 15:56:05;;;;;;;;;;;;;;;;;;5047604;28;4717;-59
2023/04/24 15:58:31;;;;;;;;;;;;;;;;;;5044682;28;5031;-58
2023/04/24 16:00:56;;;;;;;;;;;;;;;;;;5045241;28;4702;-57
2023/04/24 16:03:21;;;;;;;;;;;;;;;;;;5047210;28;3231;-57
2023/04/24 16:05:46;;;;;;;;;;;;;;;;;;5043571;28;4418;-57
2023/04/24 16:08:14;;;;;;;;;;;;;;;;;;5031818;28;4516;-57
2023/04/24 16:10:39;;;;;;;;;;;;;;;;;;5040876;28;6569;-57
2023/04/24 16:13:05;;;;;;;;;;;;;;;;;;5034967;28;4780;-56
2023/04/24 16:15:30;;;;;;;;;;;;;;;;;;5038672;28;4606;-57
2023/04/24 16:17:55;;;;;;;;;;;;;;;;;;5035701;28;3384;-57
2023/04/24 16:20:21;;;;;;;;;;;;;;;;;;5042968;28;4685;-57
2023/04/24 16:22:46;;;;;;;;;;;;;;;;;;5041811;28;5004;-57
2023/04/24 16:25:11;;;;;;;;;;;;;;;;;;5036923;28;4519;-57
2023/04/24 16:27:37;;;;;;;;;;;;;;;;;;5045940;28;4596;-58
2023/04/24 16:30:03;;;;;;;;;;;;;;;;;;5039865;28;1297;-57
2023/04/24 16:32:28;;;;;;;;;;;;;;;;;;5034197;28;5107;-57
2023/04/24 16:34:53;;;;;;;;;;;;;;;;;;5049033;28;4506;-57
2023/04/24 16:37:19;;;;;;;;;;;;;;;;;;5034613;28;5046;-57
2023/04/24 16:39:45;;;;;;;;;;;;;;;;;;5022612;28;5248;-57
2023/04/24 16:42:12;;;;;;;;;;;;;;;;;;5023727;28;2399;-57
2023/04/24 16:44:38;;;;;;;;;;;;;;;;;;5024770;28;4422;-57
2023/04/24 16:47:03;;;;;;;;;;;;;;;;;;5029250;28;4890;-56
2023/04/24 16:49:31;;;;;;;;;;;;;;;;;;5059723;28;4836;-57
2023/04/24 16:51:56;;;;;;;;;;;;;;;;;;5023933;28;4617;-57
2023/04/24 16:54:22;;;;;;;;;;;;;;;;;;5029382;28;2405;-57